Prince George, British Columbia

8:32 AM PST on February 07, 2016 (GMT -0800)
Prince George | | Change Station
CLOSE
Current Station
Airport
Location: Prince George,
Elevation: 2267 ft
Nearby Weather Stations

Elev 2267 ft 53.88 °N, 122.68 °W | Updated 12 minutes ago

Light Snow
Light Snow
27 °F
Feels Like 19 °F
N
7
Wind Variable Wind from South

Today is forecast to be nearly the same temperature as yesterday.

Today
High -- | Low -- °F
--% Chance of Precip.
Yesterday
High -- | Low -- °F
Precip. -- in
Pressure 30.53 in
Visibility 6.0 miles
Clouds Overcast 2700 ft
Windchill 19 °F
Dew Point 23 °F
Humidity 86%
Rainfall 0.00 in
Snow Depth Not available.
7:46 AM 5:03 PM
Waning Crescent, 1% visible
SPECI CYXS 071620Z AUTO 17006KT 6SM -SN OVC027 M03/M05 A3040 RMK SLP336
Pressure 30.53 in
Visibility 6.0 miles
Clouds Overcast 2700 ft
Windchill 19 °F
Dew Point 23 °F
Humidity 86%
Rainfall 0.00 in
Snow Depth Not available.
7:46 AM 5:03 PM
Waning Crescent, 1% visible
SPECI CYXS 071620Z AUTO 17006KT 6SM -SN OVC027 M03/M05 A3040 RMK SLP336

10-Day Weather Forecast

Almanac

Astronomy

Feb. 07, 2016 Rise Set
Actual Time
Civil Twilight
Nautical Twilight
Astronomical Twilight
Moon
Length of Visible Light
Length of Day
Tomorrow will be .
, % of the Moon is Illuminated

Today's Extremes

Country Highs Country Lows

Community

WunderPhotos

Upload Photos

1,891,228 photos uploaded!

WunderBlog® & News

Nearby

Air Quality

  Air Quality AQ Index Pollutant
Not available.

Snow Depth

Station Depth Elevation

Earthquake Activity

City Distance Mag. Time & Date
Minimum magnitude displayed is 2.5.

Coastal Water Temperatures

Place Temperature

Stations

Nearby Weather Stations

Station Location Temp. Windchill Dew Point Humidity Wind Precip. Elev Updated Type
                   

Watches & Warnings

There are currently no watches in effect.